Time;durP1;ratioP1;P1;durP2;ratioP2;P2;SDS_P1;SDS_P2;PMS_P1;PMS_P2;Temp;Humidity;BMP_temperature;BMP_pressure;BME280_temperature;BME280_humidity;BME280_pressure;Samples;Min_cycle;Max_cycle;Signal;HPM_P1;HPM_P2
2022/03/15 00:00:20;;;;;;;0.10;0.10;;;;;;;;;;5066860;28;20123;-61
2022/03/15 00:02:46;;;;;;;0.10;0.10;;;;;;;;;;5067178;28;20072;-63
2022/03/15 00:05:12;;;;;;;0.10;0.10;;;;;;;;;;5049192;28;20044;-64
2022/03/15 00:07:37;;;;;;;0.20;0.20;;;;;;;;;;5067314;28;20168;-60
2022/03/15 00:10:03;;;;;;;0.25;0.25;;;;;;;;;;5049174;28;20039;-62
2022/03/15 00:12:30;;;;;;;2.08;1.30;;;;;;;;;;5049103;28;20040;-65
2022/03/15 00:14:55;;;;;;;0.30;0.30;;;;;;;;;;5067126;28;20040;-62
2022/03/15 00:17:22;;;;;;;0.10;0.10;;;;;;;;;;5067597;28;20037;-63
2022/03/15 00:19:49;;;;;;;0.10;0.10;;;;;;;;;;5032828;28;20677;-61
2022/03/15 00:22:17;;;;;;;1.05;1.05;;;;;;;;;;5048675;28;20052;-61
2022/03/15 00:24:43;;;;;;;0.10;0.10;;;;;;;;;;5032143;28;20032;-60
2022/03/15 00:27:09;;;;;;;0.10;0.10;;;;;;;;;;5066721;28;20047;-61
2022/03/15 00:29:35;;;;;;;0.10;0.10;;;;;;;;;;5067410;28;20025;-64
2022/03/15 00:32:01;;;;;;;0.22;0.22;;;;;;;;;;5032280;28;20043;-61
2022/03/15 00:34:26;;;;;;;0.10;0.10;;;;;;;;;;5066448;28;20037;-61
2022/03/15 00:36:52;;;;;;;0.10;0.10;;;;;;;;;;5066326;28;20543;-62
2022/03/15 00:39:18;;;;;;;3.70;2.65;;;;;;;;;;5032398;28;20044;-66
2022/03/15 00:41:43;;;;;;;1.10;1.10;;;;;;;;;;5067115;28;20041;-61
2022/03/15 00:44:09;;;;;;;2.03;1.83;;;;;;;;;;5069884;28;20032;-62
2022/03/15 00:46:35;;;;;;;0.82;0.82;;;;;;;;;;5035958;28;20037;-60
2022/03/15 00:49:00;;;;;;;0.20;0.20;;;;;;;;;;5073030;28;20032;-62
2022/03/15 00:51:29;;;;;;;14.27;13.18;;;;;;;;;;5054623;28;20125;-62
2022/03/15 00:53:56;;;;;;;0.10;0.10;;;;;;;;;;5037886;28;20142;-61
2022/03/15 00:56:22;;;;;;;0.10;0.10;;;;;;;;;;5037810;28;20035;-60
2022/03/15 00:58:48;;;;;;;2.10;2.00;;;;;;;;;;5054352;28;20107;-63
2022/03/15 01:01:13;;;;;;;0.10;0.10;;;;;;;;;;5054459;28;20036;-59
2022/03/15 01:03:39;;;;;;;0.90;0.90;;;;;;;;;;5054562;28;20041;-61
2022/03/15 01:06:04;;;;;;;0.10;0.10;;;;;;;;;;5054396;28;20059;-60
2022/03/15 01:08:31;;;;;;;1.20;1.10;;;;;;;;;;5054232;28;20437;-60
2022/03/15 01:10:57;;;;;;;9.75;3.85;;;;;;;;;;5072695;28;20021;-61
2022/03/15 01:13:26;;;;;;;0.10;0.10;;;;;;;;;;5055766;28;20040;-61
2022/03/15 01:15:53;;;;;;;0.65;0.65;;;;;;;;;;5072474;28;20507;-62
2022/03/15 01:18:19;;;;;;;0.10;0.10;;;;;;;;;;5054211;28;20063;-61
2022/03/15 01:20:44;;;;;;;0.15;0.15;;;;;;;;;;5072066;28;20174;-61
2022/03/15 01:23:10;;;;;;;0.47;0.47;;;;;;;;;;5071966;28;20043;-61
2022/03/15 01:25:37;;;;;;;0.10;0.10;;;;;;;;;;5054396;28;20028;-61
2022/03/15 01:28:03;;;;;;;0.63;0.63;;;;;;;;;;5037668;28;20021;-62
2022/03/15 01:30:30;;;;;;;0.10;0.10;;;;;;;;;;5054284;28;20040;-60
2022/03/15 01:32:55;;;;;;;0.10;0.10;;;;;;;;;;5054047;28;20071;-61
2022/03/15 01:35:21;;;;;;;0.10;0.10;;;;;;;;;;5072071;28;20068;-60
2022/03/15 01:37:47;;;;;;;11.30;10.32;;;;;;;;;;5037289;28;20032;-61
2022/03/15 01:40:12;;;;;;;0.10;0.10;;;;;;;;;;5072285;28;20033;-61
2022/03/15 01:42:38;;;;;;;0.10;0.10;;;;;;;;;;5054075;28;20123;-62
2022/03/15 01:45:04;;;;;;;0.35;0.35;;;;;;;;;;5053717;28;20056;-59
2022/03/15 01:47:31;;;;;;;0.10;0.10;;;;;;;;;;5053498;28;20033;-61
2022/03/15 01:49:57;;;;;;;0.28;0.28;;;;;;;;;;5053569;28;20033;-60
2022/03/15 01:52:22;;;;;;;0.75;0.35;;;;;;;;;;5071669;28;20041;-59
2022/03/15 01:54:49;;;;;;;0.13;0.13;;;;;;;;;;5071870;28;20051;-61
2022/03/15 01:57:17;;;;;;;0.10;0.10;;;;;;;;;;5053232;28;20403;-60
2022/03/15 01:59:42;;;;;;;0.20;0.20;;;;;;;;;;5037351;28;20037;-62
2022/03/15 02:02:10;;;;;;;0.25;0.25;;;;;;;;;;5053364;28;20400;-62
2022/03/15 02:04:38;;;;;;;0.10;0.10;;;;;;;;;;5053462;28;20032;-61
2022/03/15 02:07:05;;;;;;;0.10;0.10;;;;;;;;;;5036973;28;20025;-61
2022/03/15 02:09:31;;;;;;;0.10;0.10;;;;;;;;;;5036877;28;20040;-62
2022/03/15 02:11:56;;;;;;;0.40;0.40;;;;;;;;;;5071277;28;20035;-62
2022/03/15 02:14:22;;;;;;;0.85;0.85;;;;;;;;;;5071987;28;20039;-60
2022/03/15 02:16:48;;;;;;;0.20;0.20;;;;;;;;;;5071693;28;20059;-60
2022/03/15 02:19:13;;;;;;;2.50;2.38;;;;;;;;;;5053358;28;20032;-61
2022/03/15 02:21:39;;;;;;;0.13;0.13;;;;;;;;;;5070799;28;20036;-61
2022/03/15 02:24:06;;;;;;;0.68;0.65;;;;;;;;;;5053471;28;20392;-60
2022/03/15 02:26:32;;;;;;;0.10;0.10;;;;;;;;;;5036932;28;20036;-60
2022/03/15 02:28:57;;;;;;;0.10;0.10;;;;;;;;;;5071544;28;20025;-61
2022/03/15 02:31:24;;;;;;;0.52;0.52;;;;;;;;;;5072064;28;20020;-61
2022/03/15 02:33:49;;;;;;;0.10;0.10;;;;;;;;;;5036976;28;20051;-61
2022/03/15 02:36:16;;;;;;;0.10;0.10;;;;;;;;;;5053556;28;20536;-61
2022/03/15 02:38:42;;;;;;;0.10;0.10;;;;;;;;;;5053762;28;20037;-59
2022/03/15 02:41:07;;;;;;;0.20;0.20;;;;;;;;;;5072255;28;20028;-60
2022/03/15 02:43:33;;;;;;;0.20;0.20;;;;;;;;;;5071838;28;20036;-60
2022/03/15 02:45:59;;;;;;;0.10;0.10;;;;;;;;;;5053490;28;20036;-61
2022/03/15 02:48:24;;;;;;;0.10;0.10;;;;;;;;;;5054019;28;20633;-61
2022/03/15 02:50:50;;;;;;;0.10;0.10;;;;;;;;;;5052502;28;20043;-60
2022/03/15 02:53:18;;;;;;;0.10;0.10;;;;;;;;;;5053178;28;20040;-62
2022/03/15 02:55:43;;;;;;;0.10;0.10;;;;;;;;;;5036495;28;20454;-61
2022/03/15 02:58:09;;;;;;;1.75;1.65;;;;;;;;;;5036931;28;20059;-62
2022/03/15 03:00:35;;;;;;;0.10;0.10;;;;;;;;;;5071174;28;20043;-61
2022/03/15 03:03:02;;;;;;;0.10;0.10;;;;;;;;;;5036715;28;20037;-61
2022/03/15 03:05:28;;;;;;;0.10;0.10;;;;;;;;;;5053338;28;20045;-61
2022/03/15 03:07:54;;;;;;;3.85;3.63;;;;;;;;;;5053777;28;20472;-60
2022/03/15 03:10:20;;;;;;;1.30;1.30;;;;;;;;;;5052047;28;20036;-59
2022/03/15 03:12:46;;;;;;;0.10;0.10;;;;;;;;;;5052971;28;20032;-61
2022/03/15 03:15:12;;;;;;;1.85;1.75;;;;;;;;;;5036805;28;20044;-61
2022/03/15 03:17:42;;;;;;;0.10;0.10;;;;;;;;;;5071155;28;20035;-59
2022/03/15 03:20:12;;;;;;;0.22;0.22;;;;;;;;;;5036222;28;20463;-61
2022/03/15 03:22:41;;;;;;;0.15;0.15;;;;;;;;;;5070707;28;20108;-60
2022/03/15 03:25:09;;;;;;;0.63;0.63;;;;;;;;;;5053056;28;20066;-60
2022/03/15 03:27:34;;;;;;;0.10;0.10;;;;;;;;;;5036085;28;20056;-61
2022/03/15 03:30:00;;;;;;;0.10;0.10;;;;;;;;;;5052826;28;20447;-61
2022/03/15 03:32:26;;;;;;;0.10;0.10;;;;;;;;;;5070750;28;20380;-61
2022/03/15 03:34:52;;;;;;;0.10;0.10;;;;;;;;;;5035531;28;20028;-62
2022/03/15 03:37:17;;;;;;;0.10;0.10;;;;;;;;;;5036681;28;20035;-60
2022/03/15 03:39:43;;;;;;;0.10;0.10;;;;;;;;;;5070883;28;20036;-60
2022/03/15 03:42:09;;;;;;;1.45;1.45;;;;;;;;;;5070640;28;20028;-61
2022/03/15 03:44:35;;;;;;;0.10;0.10;;;;;;;;;;5019477;28;20033;-62
2022/03/15 03:47:02;;;;;;;0.10;0.10;;;;;;;;;;5036505;28;20025;-60
2022/03/15 03:49:29;;;;;;;0.70;0.70;;;;;;;;;;5070075;28;20028;-61
2022/03/15 03:51:55;;;;;;;0.10;0.10;;;;;;;;;;5052122;28;20064;-61
2022/03/15 03:54:21;;;;;;;0.20;0.20;;;;;;;;;;5070103;28;20451;-60
2022/03/15 03:56:46;;;;;;;0.13;0.13;;;;;;;;;;5070536;28;20403;-59
2022/03/15 03:59:12;;;;;;;0.10;0.10;;;;;;;;;;5052657;28;20051;-60
2022/03/15 04:01:38;;;;;;;0.10;0.10;;;;;;;;;;5051465;28;20103;-59
2022/03/15 04:04:05;;;;;;;0.10;0.10;;;;;;;;;;5030908;28;20033;-60
2022/03/15 04:06:32;;;;;;;0.10;0.10;;;;;;;;;;5033752;28;20028;-60
2022/03/15 04:08:59;;;;;;;0.10;0.10;;;;;;;;;;5050553;28;20040;-66
2022/03/15 04:11:25;;;;;;;0.10;0.10;;;;;;;;;;5034071;28;20484;-66
2022/03/15 04:13:51;;;;;;;0.10;0.10;;;;;;;;;;5033032;28;20125;-61
2022/03/15 04:16:17;;;;;;;0.10;0.10;;;;;;;;;;5033307;28;20099;-61
2022/03/15 04:18:43;;;;;;;0.10;0.10;;;;;;;;;;5033853;28;20040;-60
2022/03/15 04:21:09;;;;;;;0.10;0.10;;;;;;;;;;5067018;28;20036;-59
2022/03/15 04:23:34;;;;;;;0.10;0.10;;;;;;;;;;5067843;28;20032;-62
2022/03/15 04:26:00;;;;;;;0.17;0.17;;;;;;;;;;5068441;28;20040;-60
2022/03/15 04:28:26;;;;;;;0.13;0.13;;;;;;;;;;5033602;28;20032;-61
2022/03/15 04:30:54;;;;;;;0.20;0.20;;;;;;;;;;5049216;28;20040;-61
2022/03/15 04:33:19;;;;;;;0.10;0.10;;;;;;;;;;5065790;28;20097;-60
2022/03/15 04:35:45;;;;;;;0.10;0.10;;;;;;;;;;5031847;28;20098;-61
2022/03/15 04:38:10;;;;;;;0.30;0.30;;;;;;;;;;5066161;28;20074;-62
2022/03/15 04:40:36;;;;;;;0.10;0.10;;;;;;;;;;5066919;28;20037;-59
2022/03/15 04:43:03;;;;;;;0.20;0.20;;;;;;;;;;5067917;28;20071;-60
2022/03/15 04:45:28;;;;;;;0.20;0.20;;;;;;;;;;5032574;28;20033;-60
2022/03/15 04:47:54;;;;;;;0.10;0.10;;;;;;;;;;5066855;28;20373;-60
2022/03/15 04:50:20;;;;;;;0.10;0.10;;;;;;;;;;5066764;28;20043;-61
2022/03/15 04:52:45;;;;;;;0.10;0.10;;;;;;;;;;5031707;28;20075;-60
2022/03/15 04:55:11;;;;;;;0.10;0.10;;;;;;;;;;5066074;28;20059;-61
2022/03/15 04:57:36;;;;;;;0.10;0.10;;;;;;;;;;5065685;28;20115;-60
2022/03/15 05:00:08;;;;;;;0.40;0.40;;;;;;;;;;5065884;28;20068;-62
2022/03/15 05:02:35;;;;;;;0.10;0.10;;;;;;;;;;5031138;28;20036;-61
2022/03/15 05:05:04;;;;;;;0.10;0.10;;;;;;;;;;5048633;28;20400;-60
2022/03/15 05:07:29;;;;;;;0.20;0.20;;;;;;;;;;5066039;28;20044;-60
2022/03/15 05:12:39;;;;;;;0.10;0.10;;;;;;;;;;5066058;28;20486;-60
2022/03/15 05:15:06;;;;;;;0.10;0.10;;;;;;;;;;5067806;28;20028;-59
2022/03/15 05:17:36;;;;;;;0.10;0.10;;;;;;;;;;5057175;28;20491;-61
2022/03/15 05:20:03;;;;;;;0.15;0.15;;;;;;;;;;5036099;28;20032;-61
2022/03/15 05:22:29;;;;;;;0.52;0.52;;;;;;;;;;5033159;28;20047;-60
2022/03/15 05:24:57;;;;;;;0.10;0.10;;;;;;;;;;5067756;28;20037;-59
2022/03/15 05:27:31;;;;;;;3.65;2.00;;;;;;;;;;5049665;28;20098;-63
2022/03/15 05:29:57;;;;;;;0.10;0.10;;;;;;;;;;5033018;28;20219;-67
2022/03/15 05:32:22;;;;;;;0.10;0.10;;;;;;;;;;5067804;28;20481;-60
2022/03/15 05:34:48;;;;;;;0.10;0.10;;;;;;;;;;5071200;28;20093;-61
2022/03/15 05:37:13;;;;;;;0.10;0.10;;;;;;;;;;5070776;28;20029;-60
2022/03/15 05:39:39;;;;;;;0.10;0.10;;;;;;;;;;5070720;28;20140;-59
2022/03/15 05:42:05;;;;;;;0.55;0.55;;;;;;;;;;5036171;28;20081;-61
2022/03/15 05:44:30;;;;;;;0.30;0.30;;;;;;;;;;5069989;28;20049;-61
2022/03/15 05:46:55;;;;;;;0.10;0.10;;;;;;;;;;5070150;28;20028;-63
2022/03/15 05:49:21;;;;;;;0.10;0.10;;;;;;;;;;5070380;28;20158;-60
2022/03/15 05:51:47;;;;;;;0.20;0.20;;;;;;;;;;5070275;28;20017;-60
2022/03/15 05:54:12;;;;;;;0.10;0.10;;;;;;;;;;5070072;28;20043;-59
2022/03/15 05:56:40;;;;;;;0.10;0.10;;;;;;;;;;5070507;28;20136;-60
2022/03/15 05:59:06;;;;;;;0.10;0.10;;;;;;;;;;5032403;28;20043;-61
2022/03/15 06:01:31;;;;;;;0.20;0.20;;;;;;;;;;5058951;28;20475;-61
2022/03/15 06:03:57;;;;;;;0.10;0.10;;;;;;;;;;5068172;28;20731;-61
2022/03/15 06:06:24;;;;;;;0.10;0.10;;;;;;;;;;5067663;28;20097;-60
2022/03/15 06:08:51;;;;;;;0.10;0.10;;;;;;;;;;5033482;28;20044;-61
2022/03/15 06:11:17;;;;;;;0.10;0.10;;;;;;;;;;5067874;28;20051;-61
2022/03/15 06:13:43;;;;;;;0.10;0.10;;;;;;;;;;5049794;28;20037;-62
2022/03/15 06:16:08;;;;;;;0.10;0.10;;;;;;;;;;5069897;28;20032;-61
2022/03/15 06:18:34;;;;;;;0.70;0.70;;;;;;;;;;5040267;28;20044;-61
2022/03/15 06:21:00;;;;;;;0.10;0.10;;;;;;;;;;5030709;28;20551;-64
2022/03/15 06:23:26;;;;;;;0.20;0.20;;;;;;;;;;5065842;28;20687;-62
2022/03/15 06:25:52;;;;;;;0.10;0.10;;;;;;;;;;5031725;28;20420;-61
2022/03/15 06:28:17;;;;;;;0.10;0.10;;;;;;;;;;5065695;28;20082;-61
2022/03/15 06:30:44;;;;;;;0.10;0.10;;;;;;;;;;5029974;28;20058;-63
2022/03/15 06:33:12;;;;;;;0.10;0.10;;;;;;;;;;5032596;28;20047;-66
2022/03/15 06:35:37;;;;;;;0.30;0.30;;;;;;;;;;5066688;28;21250;-61
2022/03/15 06:38:03;;;;;;;0.30;0.30;;;;;;;;;;5067337;28;20024;-60
2022/03/15 06:40:32;;;;;;;0.10;0.10;;;;;;;;;;5067200;28;20500;-65
2022/03/15 06:42:58;;;;;;;0.10;0.10;;;;;;;;;;5031973;28;20028;-60
2022/03/15 06:45:23;;;;;;;0.10;0.10;;;;;;;;;;5031494;28;20039;-62
2022/03/15 06:47:49;;;;;;;0.50;0.50;;;;;;;;;;5066944;28;20443;-62
2022/03/15 06:50:14;;;;;;;0.17;0.17;;;;;;;;;;5066635;28;20032;-63
2022/03/15 06:52:41;;;;;;;0.10;0.10;;;;;;;;;;5049001;28;20036;-61
2022/03/15 06:55:07;;;;;;;0.10;0.10;;;;;;;;;;5066897;28;20032;-63
2022/03/15 06:57:33;;;;;;;0.30;0.30;;;;;;;;;;5066811;28;20451;-61
2022/03/15 06:59:59;;;;;;;0.10;0.10;;;;;;;;;;5066372;28;20028;-62
2022/03/15 07:02:25;;;;;;;0.10;0.10;;;;;;;;;;5065609;28;20835;-62
2022/03/15 07:04:51;;;;;;;0.20;0.20;;;;;;;;;;5047887;28;20111;-61
2022/03/15 07:07:16;;;;;;;0.10;0.10;;;;;;;;;;5031963;28;20044;-61
2022/03/15 07:09:42;;;;;;;0.10;0.10;;;;;;;;;;5066464;28;20047;-62
2022/03/15 07:12:07;;;;;;;0.25;0.25;;;;;;;;;;5066360;28;20476;-61
2022/03/15 07:14:33;;;;;;;0.68;0.68;;;;;;;;;;5066225;28;20029;-62
2022/03/15 07:16:59;;;;;;;0.20;0.20;;;;;;;;;;5067216;28;20032;-62
2022/03/15 07:19:24;;;;;;;0.20;0.20;;;;;;;;;;5067035;28;20068;-61
2022/03/15 07:21:50;;;;;;;0.20;0.20;;;;;;;;;;5066848;28;20687;-62
2022/03/15 07:24:15;;;;;;;0.20;0.20;;;;;;;;;;5066488;28;20112;-61
2022/03/15 07:26:43;;;;;;;0.20;0.20;;;;;;;;;;5048512;28;20041;-61
2022/03/15 07:29:09;;;;;;;0.20;0.20;;;;;;;;;;5067406;28;20036;-61
2022/03/15 07:31:34;;;;;;;0.20;0.20;;;;;;;;;;5066124;28;20029;-60
2022/03/15 07:34:00;;;;;;;0.20;0.20;;;;;;;;;;5067054;28;20032;-61
2022/03/15 07:36:25;;;;;;;0.88;0.88;;;;;;;;;;5065805;28;20029;-60
2022/03/15 07:38:50;;;;;;;0.20;0.20;;;;;;;;;;5065970;28;20082;-60
2022/03/15 07:41:16;;;;;;;0.20;0.20;;;;;;;;;;5066268;28;20024;-61
2022/03/15 07:43:43;;;;;;;0.43;0.43;;;;;;;;;;5066838;28;20040;-60
2022/03/15 07:46:08;;;;;;;0.22;0.22;;;;;;;;;;5047874;28;20039;-61
2022/03/15 07:48:34;;;;;;;0.20;0.20;;;;;;;;;;5065474;28;20036;-60
2022/03/15 07:51:00;;;;;;;0.30;0.30;;;;;;;;;;5066786;28;20474;-62
2022/03/15 07:53:28;;;;;;;0.20;0.20;;;;;;;;;;5066912;28;20594;-61
2022/03/15 07:55:53;;;;;;;0.85;0.85;;;;;;;;;;5085779;28;20050;-61
2022/03/15 07:58:19;;;;;;;5.53;5.10;;;;;;;;;;5083954;28;20038;-61
2022/03/15 08:00:46;;;;;;;0.40;0.40;;;;;;;;;;5067692;28;20037;-60
2022/03/15 08:03:12;;;;;;;0.50;0.50;;;;;;;;;;5085953;28;20610;-61
2022/03/15 08:05:37;;;;;;;0.17;0.17;;;;;;;;;;5087134;28;20115;-61
2022/03/15 08:08:04;;;;;;;0.40;0.40;;;;;;;;;;5075695;28;20051;-61
2022/03/15 08:10:30;;;;;;;0.20;0.20;;;;;;;;;;5065960;28;20118;-61
2022/03/15 08:12:57;;;;;;;7.63;1.00;;;;;;;;;;5065155;28;20068;-62
2022/03/15 08:15:23;;;;;;;0.40;0.40;;;;;;;;;;5065828;28;20064;-62
2022/03/15 08:17:48;;;;;;;0.20;0.20;;;;;;;;;;5066587;28;20237;-61
2022/03/15 08:20:18;;;;;;;0.20;0.20;;;;;;;;;;5065283;28;20512;-61
2022/03/15 08:22:44;;;;;;;0.32;0.30;;;;;;;;;;5047638;28;20032;-60
2022/03/15 08:25:10;;;;;;;0.20;0.20;;;;;;;;;;5046359;28;20059;-61
2022/03/15 08:27:35;;;;;;;0.20;0.20;;;;;;;;;;5066104;28;20039;-62
2022/03/15 08:30:01;;;;;;;0.65;0.65;;;;;;;;;;5065613;28;20284;-61
2022/03/15 08:32:26;;;;;;;0.20;0.20;;;;;;;;;;5065344;28;20056;-62
2022/03/15 08:34:54;;;;;;;0.30;0.30;;;;;;;;;;5065441;28;20422;-62
2022/03/15 08:37:19;;;;;;;0.20;0.20;;;;;;;;;;5064462;28;20044;-61
2022/03/15 08:39:45;;;;;;;0.22;0.22;;;;;;;;;;5065999;28;20395;-64
2022/03/15 08:42:11;;;;;;;0.52;0.52;;;;;;;;;;5065804;28;20067;-61
2022/03/15 08:44:36;;;;;;;0.20;0.20;;;;;;;;;;5065841;28;20470;-62
2022/03/15 08:47:01;;;;;;;0.43;0.43;;;;;;;;;;5064848;28;20090;-61
2022/03/15 08:49:27;;;;;;;0.40;0.40;;;;;;;;;;5051091;28;20472;-61
2022/03/15 08:51:53;;;;;;;0.20;0.20;;;;;;;;;;5063060;28;20044;-61
2022/03/15 08:54:18;;;;;;;0.40;0.40;;;;;;;;;;5066594;28;20048;-61
2022/03/15 08:56:45;;;;;;;0.35;0.35;;;;;;;;;;5066510;28;20106;-61
2022/03/15 08:59:12;;;;;;;0.50;0.45;;;;;;;;;;5069925;28;20688;-59
2022/03/15 09:01:38;;;;;;;0.40;0.40;;;;;;;;;;5074783;28;20033;-63
2022/03/15 09:04:04;;;;;;;0.30;0.30;;;;;;;;;;5083725;28;20031;-61
2022/03/15 09:06:29;;;;;;;0.45;0.40;;;;;;;;;;5073564;28;20036;-60
2022/03/15 09:08:55;;;;;;;0.52;0.43;;;;;;;;;;5067976;28;20187;-61
2022/03/15 09:11:20;;;;;;;0.65;0.65;;;;;;;;;;5068496;28;20108;-61
2022/03/15 09:13:46;;;;;;;0.20;0.20;;;;;;;;;;5068717;28;20040;-61
2022/03/15 09:16:13;;;;;;;0.20;0.20;;;;;;;;;;5078054;28;20128;-60
2022/03/15 09:18:39;;;;;;;0.20;0.20;;;;;;;;;;5088888;28;20631;-60
2022/03/15 09:21:06;;;;;;;0.30;0.30;;;;;;;;;;5089260;28;20028;-61
2022/03/15 09:23:32;;;;;;;0.60;0.40;;;;;;;;;;5089365;28;20486;-60
2022/03/15 09:25:57;;;;;;;1.10;1.05;;;;;;;;;;5089156;28;20032;-60
2022/03/15 09:28:23;;;;;;;0.75;0.28;;;;;;;;;;5089319;28;20030;-61
2022/03/15 09:30:48;;;;;;;0.30;0.30;;;;;;;;;;5089391;28;20115;-60
2022/03/15 09:33:15;;;;;;;0.60;0.60;;;;;;;;;;5089088;28;20032;-60
2022/03/15 09:35:41;;;;;;;1.33;1.23;;;;;;;;;;5071153;28;20046;-59
2022/03/15 09:38:07;;;;;;;0.32;0.32;;;;;;;;;;5071152;28;20051;-61
2022/03/15 09:40:33;;;;;;;0.95;0.40;;;;;;;;;;5089693;28;20035;-60
2022/03/15 09:43:00;;;;;;;0.45;0.45;;;;;;;;;;5091520;28;20479;-60
2022/03/15 09:45:28;;;;;;;0.82;0.73;;;;;;;;;;5091128;28;20058;-61
2022/03/15 09:47:56;;;;;;;0.25;0.25;;;;;;;;;;5091303;28;20066;-61
2022/03/15 09:50:23;;;;;;;0.20;0.20;;;;;;;;;;5091142;28;20016;-59
2022/03/15 09:52:49;;;;;;;0.80;0.50;;;;;;;;;;5091366;28;20085;-60
2022/03/15 09:55:15;;;;;;;0.40;0.40;;;;;;;;;;5090532;28;20113;-60
2022/03/15 09:57:41;;;;;;;1.42;0.65;;;;;;;;;;5090887;28;20028;-60
2022/03/15 10:00:08;;;;;;;0.40;0.40;;;;;;;;;;5090836;28;20053;-60
2022/03/15 10:02:38;;;;;;;0.45;0.40;;;;;;;;;;5090809;28;20036;-60
2022/03/15 10:05:04;;;;;;;0.30;0.30;;;;;;;;;;5072476;28;20036;-60
2022/03/15 10:07:31;;;;;;;0.40;0.40;;;;;;;;;;5072668;28;20032;-59
2022/03/15 10:09:56;;;;;;;0.47;0.43;;;;;;;;;;5090623;28;20062;-59
2022/03/15 10:12:22;;;;;;;1.73;1.50;;;;;;;;;;5090412;28;20044;-59
2022/03/15 10:14:49;;;;;;;0.73;0.65;;;;;;;;;;5088083;28;20020;-59
2022/03/15 10:17:16;;;;;;;0.52;0.52;;;;;;;;;;5088361;28;20114;-60
2022/03/15 10:19:54;;;;;;;0.30;0.30;;;;;;;;;;5088860;28;20027;-61
2022/03/15 10:22:21;;;;;;;0.40;0.40;;;;;;;;;;5090606;28;20467;-64
2022/03/15 10:24:46;;;;;;;0.30;0.30;;;;;;;;;;5090697;28;20032;-61
2022/03/15 10:27:12;;;;;;;3.80;1.58;;;;;;;;;;5090438;28;20039;-61
2022/03/15 10:29:39;;;;;;;0.32;0.32;;;;;;;;;;5083894;28;20029;-60
2022/03/15 10:32:04;;;;;;;0.50;0.50;;;;;;;;;;5069961;28;20033;-60
2022/03/15 10:34:30;;;;;;;0.50;0.50;;;;;;;;;;5080712;28;20130;-60
2022/03/15 10:36:56;;;;;;;0.30;0.30;;;;;;;;;;5089257;28;20081;-60
2022/03/15 10:39:22;;;;;;;0.40;0.40;;;;;;;;;;5090124;28;20032;-60
2022/03/15 10:41:48;;;;;;;1.35;1.35;;;;;;;;;;5090071;28;20251;-59
2022/03/15 10:44:24;;;;;;;0.30;0.30;;;;;;;;;;5089845;28;20482;-61
2022/03/15 10:47:02;;;;;;;0.73;0.70;;;;;;;;;;5090278;28;20044;-59
2022/03/15 10:49:28;;;;;;;1.45;1.35;;;;;;;;;;5089931;28;20056;-59
2022/03/15 10:51:56;;;;;;;0.63;0.50;;;;;;;;;;5089692;28;20521;-60
2022/03/15 10:54:25;;;;;;;0.30;0.30;;;;;;;;;;5089536;28;20127;-59
2022/03/15 10:56:52;;;;;;;0.30;0.30;;;;;;;;;;5089844;28;20439;-60
2022/03/15 10:59:19;;;;;;;0.30;0.30;;;;;;;;;;5071517;28;20552;-60
2022/03/15 11:01:47;;;;;;;0.30;0.30;;;;;;;;;;5090024;28;20368;-60
2022/03/15 11:04:12;;;;;;;0.40;0.40;;;;;;;;;;5089382;28;20020;-61
2022/03/15 11:06:38;;;;;;;0.40;0.40;;;;;;;;;;5090026;28;20043;-60
2022/03/15 11:09:16;;;;;;;0.50;0.50;;;;;;;;;;5090134;28;20052;-59
2022/03/15 11:11:42;;;;;;;0.40;0.40;;;;;;;;;;5090019;28;20082;-59
2022/03/15 11:14:09;;;;;;;0.50;0.50;;;;;;;;;;5089033;28;20059;-59
2022/03/15 11:16:36;;;;;;;0.55;0.55;;;;;;;;;;5088761;28;20031;-60
2022/03/15 11:19:02;;;;;;;0.52;0.52;;;;;;;;;;5089379;28;20380;-59
2022/03/15 11:21:30;;;;;;;0.35;0.35;;;;;;;;;;5089450;28;20024;-59
2022/03/15 11:23:56;;;;;;;0.30;0.30;;;;;;;;;;5089469;28;20438;-59
2022/03/15 11:26:22;;;;;;;0.30;0.30;;;;;;;;;;5089187;28;20024;-59
2022/03/15 11:28:48;;;;;;;0.22;0.22;;;;;;;;;;5089285;28;20028;-60
2022/03/15 11:31:14;;;;;;;0.47;0.47;;;;;;;;;;5088411;28;20110;-58
2022/03/15 11:33:41;;;;;;;0.20;0.20;;;;;;;;;;5089202;28;20050;-61
2022/03/15 11:36:06;;;;;;;0.55;0.55;;;;;;;;;;5089041;28;20044;-61
2022/03/15 11:38:33;;;;;;;0.32;0.32;;;;;;;;;;5089266;28;20035;-59
2022/03/15 11:40:59;;;;;;;0.50;0.50;;;;;;;;;;5089524;28;20028;-59
2022/03/15 11:43:34;;;;;;;0.57;0.57;;;;;;;;;;5089331;28;20035;-59
2022/03/15 11:46:10;;;;;;;0.68;0.68;;;;;;;;;;5070803;28;20122;-59
2022/03/15 11:48:38;;;;;;;0.32;0.32;;;;;;;;;;5089161;28;20043;-59
2022/03/15 11:51:15;;;;;;;0.30;0.30;;;;;;;;;;5088953;28;20077;-59
2022/03/15 11:53:57;;;;;;;0.47;0.47;;;;;;;;;;5070874;28;20500;-59
2022/03/15 11:56:28;;;;;;;0.80;0.80;;;;;;;;;;5088795;28;20375;-60
2022/03/15 11:58:57;;;;;;;0.30;0.30;;;;;;;;;;5070967;28;20487;-59
2022/03/15 12:01:24;;;;;;;0.50;0.50;;;;;;;;;;5089040;28;20028;-61
2022/03/15 12:03:51;;;;;;;0.70;0.70;;;;;;;;;;5088975;28;20364;-60
2022/03/15 12:06:23;;;;;;;0.60;0.40;;;;;;;;;;5088710;28;20060;-59
2022/03/15 12:08:51;;;;;;;0.47;0.47;;;;;;;;;;5088905;28;20040;-58
2022/03/15 12:11:25;;;;;;;8.35;2.03;;;;;;;;;;5088315;28;20115;-58
2022/03/15 12:13:50;;;;;;;0.40;0.40;;;;;;;;;;5088699;28;20047;-58
2022/03/15 12:16:21;;;;;;;1.55;0.93;;;;;;;;;;5089128;28;20028;-58
2022/03/15 12:18:51;;;;;;;0.40;0.40;;;;;;;;;;5089042;28;20036;-58
2022/03/15 12:21:17;;;;;;;7.55;1.77;;;;;;;;;;5088790;28;20117;-58
2022/03/15 12:23:42;;;;;;;0.40;0.40;;;;;;;;;;5088593;28;20032;-58
2022/03/15 12:26:22;;;;;;;0.93;0.85;;;;;;;;;;5088447;28;20089;-58
2022/03/15 12:28:55;;;;;;;0.63;0.45;;;;;;;;;;5088406;28;20050;-58
2022/03/15 12:31:31;;;;;;;0.40;0.40;;;;;;;;;;5088464;28;20383;-58
2022/03/15 12:34:08;;;;;;;0.47;0.47;;;;;;;;;;5087759;28;20040;-58
2022/03/15 12:36:46;;;;;;;1.92;1.30;;;;;;;;;;5087812;28;20036;-58
2022/03/15 12:39:12;;;;;;;0.60;0.60;;;;;;;;;;5086532;28;20032;-58
2022/03/15 12:41:39;;;;;;;0.38;0.38;;;;;;;;;;5082063;28;20043;-58
2022/03/15 12:44:06;;;;;;;14.15;1.65;;;;;;;;;;5077067;28;20035;-59
2022/03/15 12:46:31;;;;;;;0.52;0.52;;;;;;;;;;5071632;28;20075;-59
2022/03/15 12:49:04;;;;;;;0.50;0.50;;;;;;;;;;5054257;28;20090;-58
2022/03/15 12:51:43;;;;;;;0.40;0.40;;;;;;;;;;5085659;28;20046;-58
2022/03/15 12:54:12;;;;;;;1.10;1.10;;;;;;;;;;5090603;28;20123;-57
2022/03/15 12:56:45;;;;;;;1.25;1.15;;;;;;;;;;5089116;28;20028;-58
2022/03/15 12:59:24;;;;;;;0.40;0.40;;;;;;;;;;5087176;28;20071;-57
2022/03/15 13:01:50;;;;;;;1.83;0.73;;;;;;;;;;5077076;28;20492;-57
2022/03/15 13:04:16;;;;;;;0.52;0.52;;;;;;;;;;5071078;28;20036;-57
2022/03/15 13:06:44;;;;;;;1.05;0.88;;;;;;;;;;5069311;28;20020;-58
2022/03/15 13:09:09;;;;;;;0.32;0.32;;;;;;;;;;5068722;28;20054;-57
2022/03/15 13:11:45;;;;;;;0.30;0.30;;;;;;;;;;5078202;28;20036;-57
2022/03/15 13:14:11;;;;;;;0.30;0.30;;;;;;;;;;5087899;28;20090;-60
2022/03/15 13:16:42;;;;;;;0.52;0.52;;;;;;;;;;5088109;28;20488;-57
2022/03/15 13:19:11;;;;;;;0.75;0.73;;;;;;;;;;5083279;28;20433;-58
2022/03/15 13:21:39;;;;;;;2.42;1.00;;;;;;;;;;5086716;28;20043;-58
2022/03/15 13:24:09;;;;;;;1.10;0.88;;;;;;;;;;5079834;28;20025;-57
2022/03/15 13:26:34;;;;;;;0.88;0.88;;;;;;;;;;5071471;28;20043;-58
2022/03/15 13:29:00;;;;;;;0.45;0.45;;;;;;;;;;5077286;28;20032;-58
2022/03/15 13:31:26;;;;;;;0.30;0.30;;;;;;;;;;5091252;28;20498;-57
2022/03/15 13:33:54;;;;;;;0.30;0.30;;;;;;;;;;5089129;28;20036;-57
2022/03/15 13:36:24;;;;;;;0.43;0.43;;;;;;;;;;5081808;28;20545;-58
2022/03/15 13:38:54;;;;;;;0.77;0.60;;;;;;;;;;5070867;28;20039;-58
2022/03/15 13:41:20;;;;;;;0.68;0.68;;;;;;;;;;5070207;28;20468;-57
2022/03/15 13:43:46;;;;;;;0.98;0.63;;;;;;;;;;5076908;28;20028;-59
2022/03/15 13:46:13;;;;;;;0.30;0.30;;;;;;;;;;5076764;28;20396;-58
2022/03/15 13:48:39;;;;;;;0.30;0.30;;;;;;;;;;5090220;28;20042;-59
2022/03/15 13:51:09;;;;;;;0.85;0.70;;;;;;;;;;5091244;28;20103;-58
2022/03/15 13:53:40;;;;;;;1.20;0.82;;;;;;;;;;5075228;28;20191;-58
2022/03/15 13:56:08;;;;;;;0.30;0.30;;;;;;;;;;5079593;28;20032;-58
2022/03/15 13:58:34;;;;;;;1.08;0.73;;;;;;;;;;5071274;28;20037;-58
2022/03/15 14:01:03;;;;;;;0.70;0.70;;;;;;;;;;5070670;28;20048;-59
2022/03/15 14:03:30;;;;;;;;;;;;;;;;;;5071110;28;20056;-59
2022/03/15 14:06:03;;;;;;;0.40;0.40;;;;;;;;;;5070710;28;19920;-58
2022/03/15 14:08:28;;;;;;;1.33;1.02;;;;;;;;;;5068755;28;20064;-59
2022/03/15 14:10:54;;;;;;;0.73;0.73;;;;;;;;;;5052066;28;20365;-58
2022/03/15 14:13:32;;;;;;;0.98;0.80;;;;;;;;;;5069608;28;20029;-58
2022/03/15 14:16:07;;;;;;;2.55;0.73;;;;;;;;;;5070630;28;20029;-58
2022/03/15 14:18:33;;;;;;;0.60;0.60;;;;;;;;;;5070432;28;20479;-58
2022/03/15 14:20:58;;;;;;;0.40;0.40;;;;;;;;;;5069746;28;20028;-58
2022/03/15 14:23:24;;;;;;;0.52;0.52;;;;;;;;;;5052338;28;20926;-59
2022/03/15 14:25:50;;;;;;;0.65;0.65;;;;;;;;;;5052455;28;20479;-58
2022/03/15 14:28:17;;;;;;;0.73;0.73;;;;;;;;;;5070124;28;20040;-58
2022/03/15 14:30:43;;;;;;;0.30;0.30;;;;;;;;;;5052001;28;20392;-59
2022/03/15 14:33:20;;;;;;;1.30;0.63;;;;;;;;;;5070063;28;20036;-59
2022/03/15 14:35:46;;;;;;;0.30;0.30;;;;;;;;;;5070106;28;20032;-58
2022/03/15 14:38:15;;;;;;;0.85;0.70;;;;;;;;;;5069659;28;20454;-58
2022/03/15 14:40:43;;;;;;;0.82;0.70;;;;;;;;;;5070833;28;20051;-58
2022/03/15 14:43:09;;;;;;;0.40;0.40;;;;;;;;;;5052168;28;20127;-58